Time;durP1;ratioP1;P1;durP2;ratioP2;P2;SDS_P1;SDS_P2;PMS_P1;PMS_P2;Temp;Humidity;BMP_temperature;BMP_pressure;BME280_temperature;BME280_humidity;BME280_pressure;Samples;Min_cycle;Max_cycle;Signal;HPM_P1;HPM_P2
2022/09/27 00:01:03;;;;;;;5.40;1.88;;;;;;;;;;3348292;42;20575;-63
2022/09/27 00:03:29;;;;;;;6.03;1.90;;;;;;;;;;3348503;42;20097;-60
2022/09/27 00:06:06;;;;;;;5.22;1.60;;;;;;;;;;3348412;42;20097;-61
2022/09/27 00:08:32;;;;;;;7.18;2.33;;;;;;;;;;3346009;42;20594;-59
2022/09/27 00:11:25;;;;;;;5.38;1.88;;;;;;;;;;3348236;42;20141;-60
2022/09/27 00:13:54;;;;;;;5.65;1.98;;;;;;;;;;3346926;42;20097;-64
2022/09/27 00:16:21;;;;;;;6.53;1.77;;;;;;;;;;3348628;42;20140;-60
2022/09/27 00:18:47;;;;;;;7.75;1.88;;;;;;;;;;3346777;42;20113;-60
2022/09/27 00:21:13;;;;;;;6.97;1.83;;;;;;;;;;3348305;42;20100;-62
2022/09/27 00:23:39;;;;;;;5.15;1.60;;;;;;;;;;3348339;42;20085;-60
2022/09/27 00:26:06;;;;;;;5.18;1.60;;;;;;;;;;3348255;42;20092;-61
2022/09/27 00:28:32;;;;;;;5.40;1.80;;;;;;;;;;3348307;42;20105;-61
2022/09/27 00:30:58;;;;;;;5.45;1.92;;;;;;;;;;3348291;42;20081;-61
2022/09/27 00:33:25;;;;;;;5.80;1.90;;;;;;;;;;3348301;42;20089;-61
2022/09/27 00:35:51;;;;;;;5.93;1.77;;;;;;;;;;3348435;42;20103;-62
2022/09/27 00:38:17;;;;;;;5.15;1.83;;;;;;;;;;3348219;42;20139;-61
2022/09/27 00:40:43;;;;;;;5.77;1.93;;;;;;;;;;3348103;42;20148;-60
2022/09/27 00:43:19;;;;;;;5.45;1.90;;;;;;;;;;3348141;42;20186;-64
2022/09/27 00:45:56;;;;;;;5.97;1.70;;;;;;;;;;3348124;42;20134;-62
2022/09/27 00:48:23;;;;;;;5.18;1.77;;;;;;;;;;3347031;42;20104;-61
2022/09/27 00:50:50;;;;;;;4.80;1.70;;;;;;;;;;3347107;42;20095;-58
2022/09/27 00:53:23;;;;;;;5.47;1.97;;;;;;;;;;3346832;42;20081;-60
2022/09/27 00:55:55;;;;;;;4.95;1.70;;;;;;;;;;3347310;42;20093;-60
2022/09/27 00:58:29;;;;;;;5.00;1.80;;;;;;;;;;3348835;42;20097;-61
2022/09/27 01:00:56;;;;;;;5.28;1.80;;;;;;;;;;3347468;42;20140;-61
2022/09/27 01:03:31;;;;;;;5.10;1.73;;;;;;;;;;3338611;42;20555;-60
2022/09/27 01:05:57;;;;;;;5.00;1.60;;;;;;;;;;3344627;42;20603;-60
2022/09/27 01:08:23;;;;;;;5.50;2.03;;;;;;;;;;3347239;42;20132;-64
2022/09/27 01:10:57;;;;;;;4.80;1.70;;;;;;;;;;3348309;42;20100;-62
2022/09/27 01:13:35;;;;;;;4.93;1.80;;;;;;;;;;3347156;42;20088;-60
2022/09/27 01:16:11;;;;;;;5.20;1.90;;;;;;;;;;3340319;42;20089;-60
2022/09/27 01:18:47;;;;;;;6.28;1.80;;;;;;;;;;3346960;42;20140;-60
2022/09/27 01:21:36;;;;;;;5.53;1.80;;;;;;;;;;3346984;42;20518;-58
2022/09/27 01:24:22;;;;;;;6.38;2.00;;;;;;;;;;3344696;42;20111;-63
2022/09/27 01:27:03;;;;;;;5.30;1.60;;;;;;;;;;3347088;42;20080;-62
2022/09/27 01:29:53;;;;;;;5.90;1.80;;;;;;;;;;3349147;42;20089;-59
2022/09/27 01:32:31;;;;;;;5.97;1.95;;;;;;;;;;3348270;42;20109;-61
2022/09/27 01:35:12;;;;;;;5.65;1.95;;;;;;;;;;3351408;42;20187;-60
2022/09/27 01:37:47;;;;;;;5.90;1.95;;;;;;;;;;3345308;42;20144;-60
2022/09/27 01:40:31;;;;;;;7.18;2.03;;;;;;;;;;3347576;42;20152;-59
2022/09/27 01:43:11;;;;;;;5.73;1.80;;;;;;;;;;3347110;42;20490;-61
2022/09/27 01:45:57;;;;;;;6.45;2.08;;;;;;;;;;3344546;42;20152;-60
2022/09/27 01:48:24;;;;;;;5.75;1.77;;;;;;;;;;3346929;42;20089;-59
2022/09/27 01:51:12;;;;;;;6.32;1.98;;;;;;;;;;3339197;42;20172;-62
2022/09/27 01:53:51;;;;;;;6.45;1.88;;;;;;;;;;3345179;42;20104;-61
2022/09/27 01:56:21;;;;;;;5.20;1.70;;;;;;;;;;3347983;42;20116;-61
2022/09/27 01:58:59;;;;;;;4.88;1.70;;;;;;;;;;3348053;42;20098;-58
2022/09/27 02:01:26;;;;;;;5.28;1.90;;;;;;;;;;3348109;42;20084;-60
2022/09/27 02:03:52;;;;;;;6.15;2.05;;;;;;;;;;3347993;42;20084;-62
2022/09/27 02:06:20;;;;;;;5.35;1.88;;;;;;;;;;3346105;42;20088;-60
2022/09/27 02:08:50;;;;;;;6.07;1.90;;;;;;;;;;3340904;42;20094;-63
2022/09/27 02:11:16;;;;;;;5.93;2.00;;;;;;;;;;3347941;42;20567;-60
2022/09/27 02:14:18;;;;;;;5.75;1.77;;;;;;;;;;3349499;42;20230;-62
2022/09/27 02:16:50;;;;;;;7.35;1.83;;;;;;;;;;3347963;42;20101;-60
2022/09/27 02:19:35;;;;;;;5.35;1.80;;;;;;;;;;3350267;42;20148;-59
2022/09/27 02:22:16;;;;;;;6.33;1.90;;;;;;;;;;3350368;42;20096;-61
2022/09/27 02:25:11;;;;;;;6.40;2.00;;;;;;;;;;3350478;42;20562;-61
2022/09/27 02:28:06;;;;;;;5.85;1.95;;;;;;;;;;3349466;42;20551;-61
2022/09/27 02:30:32;;;;;;;6.20;1.80;;;;;;;;;;3347313;42;20128;-65
2022/09/27 02:32:58;;;;;;;5.65;1.85;;;;;;;;;;3347822;42;20095;-60
2022/09/27 02:35:34;;;;;;;7.90;2.07;;;;;;;;;;3346947;42;20089;-60
2022/09/27 02:38:01;;;;;;;5.95;1.98;;;;;;;;;;3347979;42;20167;-60
2022/09/27 02:40:32;;;;;;;6.38;2.05;;;;;;;;;;3345217;42;20163;-63
2022/09/27 02:42:59;;;;;;;7.40;2.20;;;;;;;;;;3346794;42;20539;-58
2022/09/27 02:45:28;;;;;;;6.10;1.90;;;;;;;;;;3347572;42;20164;-58
2022/09/27 02:48:16;;;;;;;5.57;2.00;;;;;;;;;;3348486;42;20093;-63
2022/09/27 02:51:01;;;;;;;6.40;2.25;;;;;;;;;;3339360;42;20093;-60
2022/09/27 02:53:38;;;;;;;6.10;2.00;;;;;;;;;;3347586;42;20093;-62
2022/09/27 02:56:16;;;;;;;6.72;2.20;;;;;;;;;;3344448;42;20476;-59
2022/09/27 02:59:04;;;;;;;6.50;2.03;;;;;;;;;;3348724;42;20598;-63
2022/09/27 03:01:36;;;;;;;6.25;1.88;;;;;;;;;;3344554;42;20097;-63
2022/09/27 03:04:10;;;;;;;6.07;2.03;;;;;;;;;;3347088;42;20085;-58
2022/09/27 03:06:38;;;;;;;10.75;2.35;;;;;;;;;;3348997;42;20593;-60
2022/09/27 03:09:04;;;;;;;7.82;2.50;;;;;;;;;;3339454;42;20085;-62
2022/09/27 03:11:32;;;;;;;6.63;2.07;;;;;;;;;;3348661;42;20560;-60
2022/09/27 03:13:58;;;;;;;5.70;2.10;;;;;;;;;;3348986;42;20578;-60
2022/09/27 03:16:24;;;;;;;7.07;2.40;;;;;;;;;;3348372;42;20208;-61
2022/09/27 03:18:50;;;;;;;5.78;2.10;;;;;;;;;;3348379;42;20560;-62
2022/09/27 03:21:16;;;;;;;9.20;2.27;;;;;;;;;;3348344;42;20182;-61
2022/09/27 03:23:42;;;;;;;9.35;2.50;;;;;;;;;;3348206;42;20120;-61
2022/09/27 03:26:08;;;;;;;5.45;1.83;;;;;;;;;;3348680;42;20487;-62
2022/09/27 03:28:35;;;;;;;6.78;1.98;;;;;;;;;;3348533;42;20077;-62
2022/09/27 03:31:01;;;;;;;7.63;2.20;;;;;;;;;;3348591;42;20091;-61
2022/09/27 03:33:27;;;;;;;8.30;2.13;;;;;;;;;;3349380;42;20080;-61
2022/09/27 03:35:53;;;;;;;5.97;2.00;;;;;;;;;;3352018;42;20414;-61
2022/09/27 03:38:19;;;;;;;7.05;2.10;;;;;;;;;;3352439;42;20563;-63
2022/09/27 03:40:44;;;;;;;6.47;2.38;;;;;;;;;;3352058;42;20081;-61
2022/09/27 03:43:10;;;;;;;14.03;4.27;;;;;;;;;;3351751;42;20152;-63
2022/09/27 03:45:36;;;;;;;6.43;2.30;;;;;;;;;;3351367;42;20774;-62
2022/09/27 03:48:03;;;;;;;9.82;2.75;;;;;;;;;;3352700;42;20586;-60
2022/09/27 03:50:29;;;;;;;9.70;2.58;;;;;;;;;;3352061;42;20555;-61
2022/09/27 03:52:55;;;;;;;6.73;2.20;;;;;;;;;;3351140;42;20093;-62
2022/09/27 03:55:21;;;;;;;6.43;2.20;;;;;;;;;;3347489;42;20880;-60
2022/09/27 03:57:47;;;;;;;8.43;2.20;;;;;;;;;;3348142;42;20084;-62
2022/09/27 04:00:13;;;;;;;7.97;2.47;;;;;;;;;;3348269;42;20092;-61
2022/09/27 04:02:40;;;;;;;6.97;2.15;;;;;;;;;;3348413;42;20110;-59
2022/09/27 04:05:06;;;;;;;7.30;2.33;;;;;;;;;;3347817;42;20115;-58
2022/09/27 04:07:32;;;;;;;6.70;2.47;;;;;;;;;;3346722;42;20139;-63
2022/09/27 04:09:58;;;;;;;9.80;2.90;;;;;;;;;;3348305;42;20077;-64
2022/09/27 04:12:24;;;;;;;10.23;2.67;;;;;;;;;;3346080;42;20099;-61
2022/09/27 04:14:50;;;;;;;10.03;3.00;;;;;;;;;;3347583;42;20085;-61
2022/09/27 04:17:16;;;;;;;12.57;2.50;;;;;;;;;;3347879;42;20139;-60
2022/09/27 04:19:42;;;;;;;6.32;2.25;;;;;;;;;;3347821;42;20089;-61
2022/09/27 04:22:08;;;;;;;8.52;2.70;;;;;;;;;;3347808;42;20089;-63
2022/09/27 04:24:34;;;;;;;8.37;2.70;;;;;;;;;;3347919;42;20136;-62
2022/09/27 04:27:00;;;;;;;6.53;2.67;;;;;;;;;;3347675;42;20076;-60
2022/09/27 04:29:27;;;;;;;8.27;2.53;;;;;;;;;;3347922;42;20084;-59
2022/09/27 04:31:52;;;;;;;8.68;2.63;;;;;;;;;;3348026;42;20085;-61
2022/09/27 04:36:25;;;;;;;8.40;3.57;;;;;;;;;;3347524;42;20103;-61
2022/09/27 04:37:04;;;;;;;7.20;2.58;;;;;;;;;;3345038;42;20139;-60
2022/09/27 04:39:30;;;;;;;8.68;2.70;;;;;;;;;;3347688;42;20107;-61
2022/09/27 04:41:56;;;;;;;6.65;2.40;;;;;;;;;;3346250;42;20115;-63
2022/09/27 04:44:22;;;;;;;8.37;3.30;;;;;;;;;;3347475;42;20124;-64
2022/09/27 04:46:48;;;;;;;8.35;2.75;;;;;;;;;;3348068;42;20091;-62
2022/09/27 04:49:14;;;;;;;12.00;2.70;;;;;;;;;;3347345;42;20579;-62
2022/09/27 04:51:40;;;;;;;8.27;2.70;;;;;;;;;;3346725;42;20257;-62
2022/09/27 04:54:06;;;;;;;8.27;2.70;;;;;;;;;;3347651;42;20504;-63
2022/09/27 04:56:32;;;;;;;6.75;2.65;;;;;;;;;;3347278;42;20516;-62
2022/09/27 04:58:58;;;;;;;7.47;3.10;;;;;;;;;;3347380;42;20483;-63
2022/09/27 05:01:24;;;;;;;8.43;3.07;;;;;;;;;;3346890;42;20144;-60
2022/09/27 05:03:50;;;;;;;11.05;3.22;;;;;;;;;;3347422;42;20080;-59
2022/09/27 05:06:16;;;;;;;12.60;3.38;;;;;;;;;;3346893;42;20147;-61
2022/09/27 05:08:41;;;;;;;13.10;3.08;;;;;;;;;;3347742;42;20081;-64
2022/09/27 05:11:07;;;;;;;6.40;2.67;;;;;;;;;;3347622;42;20077;-61
2022/09/27 05:13:34;;;;;;;8.35;3.10;;;;;;;;;;3347736;42;20085;-60
2022/09/27 05:16:03;;;;;;;8.07;3.15;;;;;;;;;;3347836;42;20136;-63
2022/09/27 05:18:29;;;;;;;7.72;3.20;;;;;;;;;;3347797;42;20088;-63
2022/09/27 05:20:57;;;;;;;9.50;3.37;;;;;;;;;;3347321;42;20128;-61
2022/09/27 05:23:24;;;;;;;9.85;3.47;;;;;;;;;;3347120;42;20542;-61
2022/09/27 05:25:54;;;;;;;12.30;3.50;;;;;;;;;;3348008;42;20128;-62
2022/09/27 05:28:20;;;;;;;12.05;3.60;;;;;;;;;;3347145;42;20136;-61
2022/09/27 05:30:46;;;;;;;9.40;4.33;;;;;;;;;;3349567;42;20091;-61
2022/09/27 05:33:12;;;;;;;10.82;4.20;;;;;;;;;;3349258;42;20089;-59
2022/09/27 05:35:41;;;;;;;10.77;4.30;;;;;;;;;;3349643;42;20088;-61
2022/09/27 05:38:07;;;;;;;8.50;3.65;;;;;;;;;;3348969;42;20139;-61
2022/09/27 05:40:33;;;;;;;10.63;3.80;;;;;;;;;;3349342;42;20144;-60
2022/09/27 05:42:59;;;;;;;7.43;3.40;;;;;;;;;;3349327;42;20093;-62
2022/09/27 05:45:25;;;;;;;7.93;3.40;;;;;;;;;;3349060;42;20595;-63
2022/09/27 05:47:55;;;;;;;13.63;4.50;;;;;;;;;;3349476;42;20132;-60
2022/09/27 05:50:21;;;;;;;10.77;3.07;;;;;;;;;;3349212;42;20140;-62
2022/09/27 05:52:48;;;;;;;8.15;3.40;;;;;;;;;;3349646;42;20159;-62
2022/09/27 05:55:14;;;;;;;8.57;3.72;;;;;;;;;;3349306;42;20594;-62
2022/09/27 05:57:40;;;;;;;11.40;3.05;;;;;;;;;;3349350;42;20579;-61
2022/09/27 06:00:07;;;;;;;9.50;3.20;;;;;;;;;;3349279;42;20144;-62
2022/09/27 06:02:34;;;;;;;8.20;3.30;;;;;;;;;;3349439;42;20093;-60
2022/09/27 06:05:00;;;;;;;8.25;3.03;;;;;;;;;;3349078;42;20140;-62
2022/09/27 06:07:27;;;;;;;10.02;3.30;;;;;;;;;;3348793;42;20558;-62
2022/09/27 06:09:53;;;;;;;7.88;3.10;;;;;;;;;;3348759;42;20192;-60
2022/09/27 06:12:19;;;;;;;8.80;3.40;;;;;;;;;;3349081;42;20100;-61
2022/09/27 06:14:46;;;;;;;6.63;3.13;;;;;;;;;;3349329;42;20148;-61
2022/09/27 06:17:12;;;;;;;6.55;3.00;;;;;;;;;;3348776;42;20503;-62
2022/09/27 06:19:39;;;;;;;10.43;3.40;;;;;;;;;;3348730;42;20577;-64
2022/09/27 06:22:05;;;;;;;8.80;2.87;;;;;;;;;;3346321;42;20140;-63
2022/09/27 06:24:31;;;;;;;6.53;2.78;;;;;;;;;;3348377;42;20644;-60
2022/09/27 06:26:57;;;;;;;8.68;3.00;;;;;;;;;;3348488;42;20652;-61
2022/09/27 06:29:23;;;;;;;6.15;2.72;;;;;;;;;;3348758;42;20093;-61
2022/09/27 06:31:49;;;;;;;6.53;2.50;;;;;;;;;;3348884;42;20171;-59
2022/09/27 06:34:15;;;;;;;6.38;2.53;;;;;;;;;;3348418;42;20760;-58
2022/09/27 06:36:42;;;;;;;6.75;2.25;;;;;;;;;;3348941;42;20159;-63
2022/09/27 06:39:08;;;;;;;7.03;2.47;;;;;;;;;;3348400;42;20140;-61
2022/09/27 06:41:34;;;;;;;7.23;2.50;;;;;;;;;;3348969;42;20100;-61
2022/09/27 06:44:01;;;;;;;8.68;2.80;;;;;;;;;;3347743;42;20076;-61
2022/09/27 06:46:27;;;;;;;6.70;2.20;;;;;;;;;;3348513;42;20595;-61
2022/09/27 06:48:54;;;;;;;5.80;2.10;;;;;;;;;;3348387;42;20096;-60
2022/09/27 06:51:20;;;;;;;5.93;2.00;;;;;;;;;;3348822;42;20617;-63
2022/09/27 06:53:46;;;;;;;5.95;2.00;;;;;;;;;;3348996;42;20096;-61
2022/09/27 06:56:12;;;;;;;7.95;1.98;;;;;;;;;;3348388;42;20448;-62
2022/09/27 07:01:27;;;;;;;6.18;1.80;;;;;;;;;;3348814;42;20092;-63
2022/09/27 07:03:53;;;;;;;5.80;2.30;;;;;;;;;;3349721;42;20089;-61
2022/09/27 07:06:21;;;;;;;5.93;1.80;;;;;;;;;;3346823;42;20362;-60
2022/09/27 07:08:53;;;;;;;7.88;2.22;;;;;;;;;;3348402;42;20081;-60
2022/09/27 07:11:19;;;;;;;5.87;2.10;;;;;;;;;;3354354;42;20105;-60
2022/09/27 07:13:45;;;;;;;5.63;2.20;;;;;;;;;;3348325;42;20530;-62
2022/09/27 07:16:12;;;;;;;5.95;2.60;;;;;;;;;;3348455;42;20589;-61
2022/09/27 07:18:41;;;;;;;5.43;2.38;;;;;;;;;;3348644;42;20191;-61
2022/09/27 07:21:07;;;;;;;6.00;2.50;;;;;;;;;;3345818;42;20096;-61
2022/09/27 07:23:35;;;;;;;5.10;1.93;;;;;;;;;;3348221;42;20103;-59
2022/09/27 07:26:03;;;;;;;5.35;1.90;;;;;;;;;;3348389;42;20559;-59
2022/09/27 07:28:29;;;;;;;5.97;2.00;;;;;;;;;;3348115;42;20093;-67
2022/09/27 07:30:55;;;;;;;5.97;1.90;;;;;;;;;;3346172;42;20594;-63
2022/09/27 07:33:21;;;;;;;7.10;2.20;;;;;;;;;;3346869;42;20100;-61
2022/09/27 07:35:47;;;;;;;7.53;2.47;;;;;;;;;;3348146;42;20099;-60
2022/09/27 07:38:13;;;;;;;6.45;2.10;;;;;;;;;;3348036;42;20136;-63
2022/09/27 07:40:40;;;;;;;5.63;2.10;;;;;;;;;;3348297;42;20093;-60
2022/09/27 07:43:08;;;;;;;7.05;2.00;;;;;;;;;;3348069;42;20097;-60
2022/09/27 07:45:34;;;;;;;6.40;2.00;;;;;;;;;;3348110;42;20085;-60
2022/09/27 07:48:03;;;;;;;5.13;2.00;;;;;;;;;;3348363;42;20103;-63
2022/09/27 07:50:29;;;;;;;7.00;2.22;;;;;;;;;;3346446;42;20095;-62
2022/09/27 07:52:55;;;;;;;6.55;1.95;;;;;;;;;;3348362;42;20164;-61
2022/09/27 07:55:21;;;;;;;7.40;2.33;;;;;;;;;;3348068;42;20171;-62
2022/09/27 07:57:47;;;;;;;5.03;1.87;;;;;;;;;;3347983;42;20136;-64
2022/09/27 08:00:15;;;;;;;5.53;1.90;;;;;;;;;;3347877;42;20105;-64
2022/09/27 08:02:42;;;;;;;5.80;1.95;;;;;;;;;;3349193;42;20107;-60
2022/09/27 08:05:10;;;;;;;5.32;1.73;;;;;;;;;;3347711;42;20120;-63
2022/09/27 08:07:37;;;;;;;5.28;2.00;;;;;;;;;;3348124;42;20181;-64
2022/09/27 08:10:04;;;;;;;7.20;2.23;;;;;;;;;;3348140;42;20167;-62
2022/09/27 08:12:30;;;;;;;5.45;2.17;;;;;;;;;;3347295;42;20092;-62
2022/09/27 08:15:00;;;;;;;8.35;2.47;;;;;;;;;;3346454;42;20077;-61
2022/09/27 08:17:29;;;;;;;9.38;2.20;;;;;;;;;;3347331;42;20179;-65
2022/09/27 08:19:56;;;;;;;7.13;2.30;;;;;;;;;;3346438;42;20127;-65
2022/09/27 08:22:22;;;;;;;5.50;2.13;;;;;;;;;;3346993;42;20092;-59
2022/09/27 08:24:48;;;;;;;5.95;1.70;;;;;;;;;;3346636;42;20105;-62
2022/09/27 08:27:15;;;;;;;6.00;1.98;;;;;;;;;;3347727;42;20199;-61
2022/09/27 08:29:41;;;;;;;6.35;2.20;;;;;;;;;;3347620;42;20101;-59
2022/09/27 08:32:08;;;;;;;4.70;1.70;;;;;;;;;;3346875;42;20088;-60
2022/09/27 08:34:34;;;;;;;4.75;1.55;;;;;;;;;;3347795;42;20143;-61
2022/09/27 08:37:00;;;;;;;4.80;1.70;;;;;;;;;;3347872;42;20077;-61
2022/09/27 08:39:25;;;;;;;5.05;1.70;;;;;;;;;;3347645;42;20085;-65
2022/09/27 08:42:16;;;;;;;5.40;1.70;;;;;;;;;;3347670;42;20140;-61
2022/09/27 08:44:48;;;;;;;5.00;1.63;;;;;;;;;;3346613;42;20092;-63
2022/09/27 08:47:20;;;;;;;5.60;1.70;;;;;;;;;;3347433;42;20216;-62
2022/09/27 08:49:52;;;;;;;5.55;1.75;;;;;;;;;;3346301;42;20535;-65
2022/09/27 08:52:21;;;;;;;5.45;1.73;;;;;;;;;;3347601;42;20089;-61
2022/09/27 08:54:47;;;;;;;5.10;1.93;;;;;;;;;;3345635;42;20156;-64
2022/09/27 08:57:13;;;;;;;6.40;2.03;;;;;;;;;;3345652;42;20096;-62
2022/09/27 08:59:54;;;;;;;5.45;1.85;;;;;;;;;;3347290;42;20549;-62
2022/09/27 09:02:23;;;;;;;5.45;2.10;;;;;;;;;;3339459;42;20153;-61
2022/09/27 09:04:52;;;;;;;5.13;1.77;;;;;;;;;;3349525;42;20080;-62
2022/09/27 09:07:17;;;;;;;7.05;2.25;;;;;;;;;;3346894;42;20140;-66
2022/09/27 09:09:52;;;;;;;7.05;1.98;;;;;;;;;;3348513;42;20111;-62
2022/09/27 09:12:47;;;;;;;5.85;2.13;;;;;;;;;;3349701;42;20159;-61
2022/09/27 09:15:16;;;;;;;7.45;2.35;;;;;;;;;;3345520;42;20144;-59
2022/09/27 09:17:51;;;;;;;5.27;2.00;;;;;;;;;;3354523;42;20139;-63
2022/09/27 09:20:23;;;;;;;8.10;2.40;;;;;;;;;;3351452;42;20574;-60
2022/09/27 09:23:33;;;;;;;6.60;2.40;;;;;;;;;;3353507;42;21488;-61
2022/09/27 09:26:09;;;;;;;6.68;2.55;;;;;;;;;;3348987;42;20136;-65
2022/09/27 09:28:59;;;;;;;7.22;2.50;;;;;;;;;;3353086;42;20578;-62
2022/09/27 09:31:38;;;;;;;6.47;2.57;;;;;;;;;;3351159;42;20632;-64
2022/09/27 09:34:34;;;;;;;6.50;2.17;;;;;;;;;;3350742;42;20548;-69
2022/09/27 09:37:35;;;;;;;7.22;1.95;;;;;;;;;;3349785;42;20163;-61
2022/09/27 09:40:24;;;;;;;7.13;2.22;;;;;;;;;;3351028;42;20104;-61
2022/09/27 09:43:35;;;;;;;5.65;2.10;;;;;;;;;;3351070;42;20216;-62
2022/09/27 09:46:11;;;;;;;5.07;1.83;;;;;;;;;;3338105;42;20139;-63
2022/09/27 09:48:40;;;;;;;5.93;2.10;;;;;;;;;;3349687;42;20089;-61
2022/09/27 09:51:09;;;;;;;5.35;1.95;;;;;;;;;;3353655;42;20115;-61
2022/09/27 09:53:50;;;;;;;5.57;1.98;;;;;;;;;;3341408;42;20163;-61
2022/09/27 09:56:32;;;;;;;6.40;2.22;;;;;;;;;;3349063;42;20088;-61
2022/09/27 09:58:58;;;;;;;7.40;2.13;;;;;;;;;;3347062;42;20585;-62
2022/09/27 10:01:26;;;;;;;6.53;2.10;;;;;;;;;;3349192;42;20080;-60
2022/09/27 10:03:54;;;;;;;5.85;2.15;;;;;;;;;;3351692;42;20144;-61
2022/09/27 10:06:20;;;;;;;5.80;2.10;;;;;;;;;;3349410;42;20089;-61
2022/09/27 10:08:46;;;;;;;5.60;2.17;;;;;;;;;;3349141;42;20108;-63
2022/09/27 10:11:18;;;;;;;7.65;2.28;;;;;;;;;;3348283;42;20100;-67
2022/09/27 10:13:44;;;;;;;6.20;2.50;;;;;;;;;;3345115;42;20088;-62
2022/09/27 10:16:12;;;;;;;7.13;2.47;;;;;;;;;;3349848;42;20103;-63
2022/09/27 10:18:40;;;;;;;6.13;2.10;;;;;;;;;;3347992;42;20097;-64
2022/09/27 10:21:30;;;;;;;5.63;2.10;;;;;;;;;;3348532;42;20100;-65
2022/09/27 10:24:07;;;;;;;5.88;2.20;;;;;;;;;;3348857;42;20091;-62
2022/09/27 10:26:33;;;;;;;6.25;2.10;;;;;;;;;;3345802;42;20089;-63
2022/09/27 10:29:18;;;;;;;4.80;1.90;;;;;;;;;;3347388;42;20099;-65
2022/09/27 10:31:46;;;;;;;6.87;1.80;;;;;;;;;;3349510;42;20140;-61
2022/09/27 10:34:23;;;;;;;5.20;1.80;;;;;;;;;;3348526;42;20115;-65
2022/09/27 10:37:21;;;;;;;4.82;1.60;;;;;;;;;;3347466;42;20096;-61
2022/09/27 10:39:49;;;;;;;7.20;1.90;;;;;;;;;;3339676;42;20093;-61
2022/09/27 10:42:35;;;;;;;4.75;1.60;;;;;;;;;;3347450;42;20089;-62
2022/09/27 10:45:21;;;;;;;5.20;1.80;;;;;;;;;;3346504;42;20552;-61
2022/09/27 10:47:47;;;;;;;5.10;1.88;;;;;;;;;;3346137;42;20077;-65
2022/09/27 10:50:22;;;;;;;5.22;1.83;;;;;;;;;;3348905;42;20567;-63
2022/09/27 10:52:48;;;;;;;5.20;1.80;;;;;;;;;;3347461;42;20104;-61
2022/09/27 10:55:24;;;;;;;7.93;2.20;;;;;;;;;;3347417;42;20092;-66
2022/09/27 10:57:51;;;;;;;5.15;1.98;;;;;;;;;;3347417;42;20178;-61
2022/09/27 11:00:35;;;;;;;7.10;2.90;;;;;;;;;;3347144;42;20140;-62
2022/09/27 11:03:13;;;;;;;5.07;1.75;;;;;;;;;;3348540;42;20551;-61
2022/09/27 11:05:39;;;;;;;5.00;1.60;;;;;;;;;;3346809;42;20171;-61
2022/09/27 11:08:17;;;;;;;6.60;1.60;;;;;;;;;;3347501;42;20693;-66
2022/09/27 11:10:43;;;;;;;6.07;1.70;;;;;;;;;;3349322;42;20173;-60
2022/09/27 11:13:16;;;;;;;7.00;1.77;;;;;;;;;;3348766;42;20102;-64
2022/09/27 11:15:55;;;;;;;5.57;1.70;;;;;;;;;;3347232;42;20119;-61
2022/09/27 11:18:51;;;;;;;5.50;2.05;;;;;;;;;;3349502;42;20159;-63
2022/09/27 11:21:23;;;;;;;5.43;1.90;;;;;;;;;;3354251;42;20096;-61
2022/09/27 11:23:52;;;;;;;4.93;1.70;;;;;;;;;;3349435;42;20654;-62
2022/09/27 11:26:39;;;;;;;7.18;1.80;;;;;;;;;;3346977;42;20089;-60
2022/09/27 11:29:45;;;;;;;7.15;2.10;;;;;;;;;;3348733;42;20168;-61
2022/09/27 11:32:34;;;;;;;6.88;1.92;;;;;;;;;;3345615;42;20187;-61
2022/09/27 11:35:29;;;;;;;5.63;1.80;;;;;;;;;;3347813;42;20092;-62
2022/09/27 11:38:37;;;;;;;4.90;1.50;;;;;;;;;;3347295;42;20187;-63
2022/09/27 11:41:13;;;;;;;6.82;1.80;;;;;;;;;;3345361;42;20642;-60
2022/09/27 11:44:07;;;;;;;5.03;1.70;;;;;;;;;;3344951;42;20170;-62
2022/09/27 11:46:36;;;;;;;6.30;1.60;;;;;;;;;;3346652;42;20088;-62
2022/09/27 11:49:23;;;;;;;6.73;1.70;;;;;;;;;;3346873;42;20141;-63
2022/09/27 11:51:52;;;;;;;5.38;1.80;;;;;;;;;;3348056;42;20163;-61
2022/09/27 11:54:55;;;;;;;5.88;1.65;;;;;;;;;;3349177;42;20140;-61
2022/09/27 11:57:27;;;;;;;5.85;1.80;;;;;;;;;;3346171;42;20512;-62
2022/09/27 12:00:19;;;;;;;6.07;1.65;;;;;;;;;;3346963;42;20171;-62
2022/09/27 12:03:00;;;;;;;4.80;1.70;;;;;;;;;;3353359;42;20530;-62
2022/09/27 12:05:36;;;;;;;5.22;1.85;;;;;;;;;;3348081;42;20212;-66
2022/09/27 12:08:07;;;;;;;6.40;1.80;;;;;;;;;;3348381;42;20135;-62
2022/09/27 12:10:35;;;;;;;5.15;1.60;;;;;;;;;;3348862;42;20136;-61
2022/09/27 12:13:01;;;;;;;5.80;1.77;;;;;;;;;;3346757;42;20205;-61
2022/09/27 12:15:32;;;;;;;5.73;1.73;;;;;;;;;;3337742;42;20093;-65
2022/09/27 12:18:25;;;;;;;5.05;1.60;;;;;;;;;;3339883;42;20105;-62
2022/09/27 12:20:51;;;;;;;5.10;1.60;;;;;;;;;;3342245;42;20119;-63
2022/09/27 12:23:21;;;;;;;5.70;1.90;;;;;;;;;;3346833;42;20503;-62
2022/09/27 12:25:50;;;;;;;6.13;2.20;;;;;;;;;;3332743;42;20163;-61
2022/09/27 12:28:35;;;;;;;5.10;1.80;;;;;;;;;;3346638;42;20598;-63
2022/09/27 12:31:24;;;;;;;6.07;1.83;;;;;;;;;;3346551;42;20116;-62
2022/09/27 12:34:09;;;;;;;7.07;1.77;;;;;;;;;;3346325;42;20555;-65
2022/09/27 12:36:39;;;;;;;6.32;1.60;;;;;;;;;;3338786;42;20101;-62
2022/09/27 12:39:20;;;;;;;5.10;1.70;;;;;;;;;;3346680;42;20160;-60
2022/09/27 12:42:00;;;;;;;7.30;1.75;;;;;;;;;;3345027;42;20096;-62
2022/09/27 12:44:38;;;;;;;5.38;1.73;;;;;;;;;;3339177;42;20102;-62
2022/09/27 12:47:29;;;;;;;5.40;1.60;;;;;;;;;;3346057;42;20096;-62
2022/09/27 12:50:14;;;;;;;4.82;1.60;;;;;;;;;;3346152;42;20715;-61
2022/09/27 12:52:45;;;;;;;4.83;1.60;;;;;;;;;;3344115;42;20121;-63
2022/09/27 12:55:24;;;;;;;5.85;1.70;;;;;;;;;;3347210;42;20563;-60
2022/09/27 12:58:10;;;;;;;7.72;2.47;;;;;;;;;;3346587;42;20096;-61
2022/09/27 13:00:46;;;;;;;4.80;1.50;;;;;;;;;;3344104;42;20103;-64
2022/09/27 13:03:46;;;;;;;5.40;1.60;;;;;;;;;;3347610;42;20085;-64
2022/09/27 13:06:55;;;;;;;5.43;1.50;;;;;;;;;;3337601;42;20088;-62
2022/09/27 13:09:41;;;;;;;5.32;1.67;;;;;;;;;;3345764;42;20195;-62
2022/09/27 13:12:26;;;;;;;5.00;1.58;;;;;;;;;;3347670;42;20099;-63
2022/09/27 13:14:59;;;;;;;7.18;1.70;;;;;;;;;;3337095;42;20101;-62
2022/09/27 13:17:43;;;;;;;6.28;1.90;;;;;;;;;;3347116;42;20583;-64
2022/09/27 13:20:34;;;;;;;5.97;1.50;;;;;;;;;;3345966;42;20104;-61
2022/09/27 13:23:01;;;;;;;7.28;2.10;;;;;;;;;;3346070;42;20092;-62
2022/09/27 13:25:52;;;;;;;6.75;1.50;;;;;;;;;;3346199;42;20089;-62
2022/09/27 13:28:32;;;;;;;5.40;1.85;;;;;;;;;;3346752;42;20081;-63
2022/09/27 13:30:59;;;;;;;6.90;1.60;;;;;;;;;;3347632;42;20085;-64
2022/09/27 13:33:45;;;;;;;5.40;1.90;;;;;;;;;;3348485;42;20111;-60
2022/09/27 13:36:23;;;;;;;5.60;1.40;;;;;;;;;;3346466;42;20088;-61
2022/09/27 13:39:09;;;;;;;6.18;1.60;;;;;;;;;;3345902;42;20085;-61
2022/09/27 13:41:35;;;;;;;4.70;1.50;;;;;;;;;;3348312;42;20173;-63
2022/09/27 13:44:31;;;;;;;5.85;1.60;;;;;;;;;;3347129;42;20097;-65
2022/09/27 13:46:58;;;;;;;4.93;1.70;;;;;;;;;;3345783;42;20095;-61
2022/09/27 13:49:30;;;;;;;6.75;1.75;;;;;;;;;;3348876;42;20594;-61
2022/09/27 13:52:02;;;;;;;6.07;1.80;;;;;;;;;;3348233;42;20135;-61
2022/09/27 13:54:53;;;;;;;6.40;1.65;;;;;;;;;;3351261;42;20583;-61
2022/09/27 13:57:49;;;;;;;5.65;1.55;;;;;;;;;;3351374;42;20084;-64
2022/09/27 14:00:26;;;;;;;4.67;1.63;;;;;;;;;;3346566;42;20100;-62
2022/09/27 14:03:10;;;;;;;5.82;1.73;;;;;;;;;;3349716;42;20096;-63
2022/09/27 14:05:45;;;;;;;9.60;1.80;;;;;;;;;;3351188;42;20092;-65
2022/09/27 14:08:29;;;;;;;8.05;1.80;;;;;;;;;;3352796;42;20103;-65
2022/09/27 14:10:55;;;;;;;5.18;2.00;;;;;;;;;;3344881;42;20089;-61
2022/09/27 14:13:21;;;;;;;5.73;1.70;;;;;;;;;;3352052;42;20088;-60
2022/09/27 14:15:48;;;;;;;7.43;1.70;;;;;;;;;;3353250;42;20656;-64
2022/09/27 14:18:14;;;;;;;5.90;1.85;;;;;;;;;;3347432;42;20080;-62
2022/09/27 14:20:42;;;;;;;4.65;1.55;;;;;;;;;;3349122;42;20123;-62
2022/09/27 14:23:21;;;;;;;5.72;1.48;;;;;;;;;;3347696;42;20097;-62
2022/09/27 14:25:48;;;;;;;11.20;2.00;;;;;;;;;;3347351;42;20551;-60
2022/09/27 14:28:27;;;;;;;7.97;1.90;;;;;;;;;;3346991;42;20128;-66
2022/09/27 14:31:10;;;;;;;6.45;1.88;;;;;;;;;;3348649;42;20155;-63
2022/09/27 14:33:37;;;;;;;6.13;1.75;;;;;;;;;;3345309;42;20144;-61
2022/09/27 14:38:50;;;;;;;5.77;1.77;;;;;;;;;;3339898;42;20549;-63
2022/09/27 14:41:16;;;;;;;5.05;1.70;;;;;;;;;;3354194;42;20136;-61
2022/09/27 14:43:43;;;;;;;6.93;1.60;;;;;;;;;;3348344;42;20486;-61
2022/09/27 14:46:27;;;;;;;4.90;1.65;;;;;;;;;;3348484;42;20600;-61
2022/09/27 14:48:54;;;;;;;5.70;1.60;;;;;;;;;;3347577;42;20100;-63
2022/09/27 14:51:28;;;;;;;7.53;1.80;;;;;;;;;;3348466;42;20506;-63
2022/09/27 14:53:57;;;;;;;5.93;1.52;;;;;;;;;;3348586;42;20128;-65
2022/09/27 14:56:26;;;;;;;5.40;1.60;;;;;;;;;;3349540;42;20111;-66
2022/09/27 14:59:09;;;;;;;5.97;1.60;;;;;;;;;;3339803;42;20494;-61
2022/09/27 15:01:38;;;;;;;6.18;1.60;;;;;;;;;;3347319;42;20195;-61
2022/09/27 15:04:10;;;;;;;6.63;1.90;;;;;;;;;;3348965;42;20151;-63
2022/09/27 15:06:36;;;;;;;5.95;2.00;;;;;;;;;;3347150;42;20107;-63
2022/09/27 15:09:03;;;;;;;5.78;1.80;;;;;;;;;;3347325;42;20112;-59
2022/09/27 15:11:33;;;;;;;7.60;2.03;;;;;;;;;;3347524;42;20105;-64
2022/09/27 15:14:00;;;;;;;6.90;1.58;;;;;;;;;;3338346;42;20174;-61
2022/09/27 15:16:27;;;;;;;7.67;2.10;;;;;;;;;;3343722;42;20579;-60
2022/09/27 15:19:06;;;;;;;5.10;1.50;;;;;;;;;;3346726;42;20643;-61
2022/09/27 15:21:33;;;;;;;4.70;1.63;;;;;;;;;;3348377;42;20602;-60